createdAt,value
2023-04-25T00:00:20.994Z,14.71
2023-04-25T00:02:48.229Z,14.63
2023-04-25T00:05:18.477Z,14.61
2023-04-25T00:07:45.557Z,14.54
2023-04-25T00:10:12.930Z,14.56
2023-04-25T00:12:40.264Z,14.62
2023-04-25T00:15:07.855Z,14.49
2023-04-25T00:17:36.046Z,14.55
2023-04-25T00:20:06.172Z,14.60
2023-04-25T00:22:35.842Z,14.50
2023-04-25T00:25:04.489Z,14.52
2023-04-25T00:27:31.572Z,14.52
2023-04-25T00:29:58.691Z,14.49
2023-04-25T00:32:26.197Z,14.58
2023-04-25T00:34:53.296Z,14.50
2023-04-25T00:37:20.979Z,14.42
2023-04-25T00:39:48.007Z,14.57
2023-04-25T00:42:15.140Z,14.37
2023-04-25T00:44:43.340Z,14.50
2023-04-25T00:47:12.548Z,14.41
2023-04-25T00:49:39.534Z,14.28
2023-04-25T00:52:06.685Z,14.38
2023-04-25T00:54:33.721Z,14.31
2023-04-25T00:57:02.138Z,14.30
2023-04-25T00:59:30.944Z,14.39
2023-04-25T01:01:59.210Z,14.31
2023-04-25T01:04:30.841Z,14.29
2023-04-25T01:06:59.107Z,14.17
2023-04-25T01:09:26.861Z,14.28
2023-04-25T01:11:54.006Z,14.17
2023-04-25T01:14:21.240Z,14.05
2023-04-25T01:16:48.359Z,14.11
2023-04-25T01:19:19.258Z,14.20
2023-04-25T01:21:47.593Z,14.23
2023-04-25T01:24:15.407Z,14.19
2023-04-25T01:26:50.653Z,14.18
2023-04-25T01:29:22.527Z,14.20
2023-04-25T01:31:50.392Z,14.11
2023-04-25T01:34:17.504Z,14.06
2023-04-25T01:36:44.544Z,14.13
2023-04-25T01:39:11.683Z,14.14
2023-04-25T01:41:39.830Z,14.14
2023-04-25T01:44:07.355Z,14.10
2023-04-25T01:46:35.119Z,14.08
2023-04-25T01:49:03.068Z,14.07
2023-04-25T01:51:31.582Z,14.05
2023-04-25T01:54:01.006Z,14.12
2023-04-25T01:56:33.818Z,14.17
2023-04-25T01:59:01.826Z,14.20
2023-04-25T02:02:05.011Z,14.18
2023-04-25T02:04:34.069Z,14.27
2023-04-25T02:07:02.393Z,14.19
2023-04-25T02:09:39.190Z,14.24
2023-04-25T02:12:09.947Z,14.23
2023-04-25T02:15:00.027Z,14.22
2023-04-25T02:17:36.491Z,14.20
2023-04-25T02:20:04.313Z,14.28
2023-04-25T02:22:31.791Z,14.14
2023-04-25T02:24:59.108Z,14.17
2023-04-25T02:27:26.341Z,14.26
2023-04-25T02:29:53.363Z,14.21
2023-04-25T02:32:20.521Z,14.15
2023-04-25T02:34:49.239Z,14.14
2023-04-25T02:37:16.249Z,14.26
2023-04-25T02:39:46.224Z,14.26
2023-04-25T02:42:13.379Z,14.44
2023-04-25T02:44:40.436Z,14.48
2023-04-25T02:47:07.542Z,14.45
2023-04-25T02:49:34.575Z,14.57
2023-04-25T02:52:01.680Z,14.58
2023-04-25T02:54:28.947Z,14.66
2023-04-25T02:56:56.933Z,14.59
2023-04-25T02:59:28.037Z,14.64
2023-04-25T03:01:55.215Z,14.53
2023-04-25T03:04:24.964Z,14.59
2023-04-25T03:06:52.635Z,14.59
2023-04-25T03:09:21.850Z,14.69
2023-04-25T03:11:49.479Z,14.80
2023-04-25T03:14:16.530Z,14.82
2023-04-25T03:16:43.618Z,14.59
2023-04-25T03:19:10.764Z,14.54
2023-04-25T03:21:38.501Z,14.92
2023-04-25T03:24:06.170Z,15.06
2023-04-25T03:26:33.331Z,15.14
2023-04-25T03:29:00.828Z,15.18
2023-04-25T03:31:28.512Z,15.09
2023-04-25T03:33:55.662Z,15.19
2023-04-25T03:36:24.303Z,15.31
2023-04-25T03:38:51.722Z,15.39
2023-04-25T03:41:21.249Z,15.57
2023-04-25T03:43:55.086Z,15.68
2023-04-25T03:46:22.333Z,15.84
2023-04-25T03:48:49.920Z,15.98
2023-04-25T03:51:22.409Z,16.14
2023-04-25T03:53:49.996Z,16.22
2023-04-25T03:56:20.099Z,16.35
2023-04-25T03:58:50.902Z,16.58
2023-04-25T04:01:20.596Z,16.67
2023-04-25T04:03:48.398Z,16.78
2023-04-25T04:06:16.842Z,16.83
2023-04-25T04:08:48.136Z,17.04
2023-04-25T04:11:15.292Z,17.26
2023-04-25T04:13:42.655Z,17.26
2023-04-25T04:16:09.870Z,17.17
2023-04-25T04:18:37.202Z,17.31
2023-04-25T04:21:04.235Z,17.54
2023-04-25T04:23:34.834Z,17.62
2023-04-25T04:26:02.271Z,17.86
2023-04-25T04:28:38.879Z,17.85
2023-04-25T04:31:26.233Z,17.81
2023-04-25T04:33:53.425Z,17.74
2023-04-25T04:36:21.031Z,17.70
2023-04-25T04:38:48.922Z,17.69
2023-04-25T04:41:24.869Z,17.65
2023-04-25T04:44:08.857Z,17.47
2023-04-25T04:47:08.355Z,17.64
2023-04-25T04:49:53.137Z,17.81
2023-04-25T04:52:53.106Z,17.83
2023-04-25T04:55:43.979Z,18.04
2023-04-25T04:58:30.772Z,18.24
2023-04-25T05:01:24.497Z,18.55
2023-04-25T05:04:15.236Z,18.54
2023-04-25T05:07:00.806Z,18.65
2023-04-25T05:09:28.190Z,18.50
2023-04-25T05:12:15.578Z,18.62
2023-04-25T05:14:58.826Z,18.56
2023-04-25T05:17:44.541Z,18.67
2023-04-25T05:20:30.401Z,18.87
2023-04-25T05:23:01.210Z,19.01
2023-04-25T05:25:43.742Z,19.25
2023-04-25T05:28:17.562Z,19.30
2023-04-25T05:31:01.226Z,19.46
2023-04-25T05:33:31.635Z,19.61
2023-04-25T05:36:00.027Z,19.77
2023-04-25T05:38:27.401Z,20.00
2023-04-25T05:41:26.912Z,20.18
2023-04-25T05:44:01.716Z,20.40
2023-04-25T05:46:31.735Z,20.52
2023-04-25T05:49:19.849Z,20.60
2023-04-25T05:51:58.766Z,20.73
2023-04-25T05:54:44.378Z,21.01
2023-04-25T05:57:21.726Z,21.17
2023-04-25T05:59:48.892Z,21.27
2023-04-25T06:02:16.299Z,20.97
2023-04-25T06:04:43.998Z,20.72
2023-04-25T06:07:11.281Z,20.54
2023-04-25T06:09:40.098Z,21.24
2023-04-25T06:12:07.956Z,21.98
2023-04-25T06:14:36.709Z,22.81
2023-04-25T06:17:09.404Z,23.64
2023-04-25T06:19:37.313Z,24.63
2023-04-25T06:22:04.499Z,25.40
2023-04-25T06:24:35.826Z,26.13
2023-04-25T06:27:04.812Z,26.85
2023-04-25T06:29:31.856Z,27.49
2023-04-25T06:31:59.211Z,27.61
2023-04-25T06:34:26.306Z,27.24
2023-04-25T06:36:53.609Z,27.06
2023-04-25T06:39:24.149Z,26.49
2023-04-25T06:41:51.209Z,26.31
2023-04-25T06:44:36.991Z,26.27
2023-04-25T06:47:07.567Z,26.43
2023-04-25T06:49:34.714Z,26.44
2023-04-25T06:52:02.669Z,26.56
2023-04-25T06:54:30.820Z,26.62
2023-04-25T06:57:05.548Z,26.92
2023-04-25T06:59:33.956Z,26.60
2023-04-25T07:02:01.058Z,26.27
2023-04-25T07:04:28.995Z,26.05
2023-04-25T07:06:57.955Z,26.00
2023-04-25T07:09:35.084Z,25.95
2023-04-25T07:12:02.732Z,26.23
2023-04-25T07:14:29.696Z,26.53
2023-04-25T07:16:58.261Z,26.53
2023-04-25T07:19:27.941Z,26.24
2023-04-25T07:21:57.583Z,25.97
2023-04-25T07:24:25.107Z,25.69
2023-04-25T07:26:54.745Z,26.02
2023-04-25T07:29:38.192Z,26.43
2023-04-25T07:32:05.771Z,26.52
2023-04-25T07:34:33.255Z,26.60
2023-04-25T07:37:00.909Z,26.39
2023-04-25T07:39:35.594Z,26.66
2023-04-25T07:42:03.338Z,26.89
2023-04-25T07:44:39.362Z,27.10
2023-04-25T07:47:08.615Z,26.40
2023-04-25T07:49:36.527Z,26.49
2023-04-25T07:52:04.820Z,26.78
2023-04-25T07:54:32.181Z,27.28
2023-04-25T07:57:04.959Z,27.78
2023-04-25T07:59:32.059Z,28.33
2023-04-25T08:02:02.044Z,28.47
2023-04-25T08:04:30.097Z,28.25
2023-04-25T08:07:05.374Z,27.87
2023-04-25T08:09:40.371Z,27.23
2023-04-25T08:12:12.869Z,26.43
2023-04-25T08:14:41.224Z,25.79
2023-04-25T08:17:08.400Z,25.25
2023-04-25T08:19:40.700Z,25.42
2023-04-25T08:22:12.324Z,25.56
2023-04-25T08:24:49.277Z,25.70
2023-04-25T08:27:18.067Z,26.55
2023-04-25T08:29:45.221Z,26.81
2023-04-25T08:32:12.445Z,27.05
2023-04-25T08:34:47.915Z,27.04
2023-04-25T08:37:15.459Z,26.41
2023-04-25T08:39:54.721Z,26.24
2023-04-25T08:42:42.648Z,26.11
2023-04-25T08:45:10.685Z,25.35
2023-04-25T08:47:41.050Z,24.96
2023-04-25T08:50:08.837Z,25.20
2023-04-25T08:52:46.929Z,25.39
2023-04-25T08:55:15.482Z,25.45
2023-04-25T08:57:46.547Z,25.62
2023-04-25T09:00:14.504Z,25.48
2023-04-25T09:02:45.244Z,25.72
2023-04-25T09:05:14.881Z,25.61
2023-04-25T09:07:42.663Z,25.48
2023-04-25T09:10:10.233Z,25.14
2023-04-25T09:12:39.147Z,25.01
2023-04-25T09:15:11.922Z,24.67
2023-04-25T09:17:58.220Z,25.18
2023-04-25T09:20:30.297Z,25.45
2023-04-25T09:23:06.503Z,25.89
2023-04-25T09:25:39.960Z,26.21
2023-04-25T09:28:09.044Z,26.79
2023-04-25T09:30:37.957Z,27.06
2023-04-25T09:33:12.700Z,27.57
2023-04-25T09:35:46.178Z,27.61
2023-04-25T09:38:22.443Z,27.17
2023-04-25T09:41:24.913Z,27.94
2023-04-25T09:43:52.356Z,28.66
2023-04-25T09:46:22.250Z,29.05
2023-04-25T09:48:55.077Z,28.98
2023-04-25T09:51:56.204Z,28.04
2023-04-25T09:54:27.644Z,26.94
2023-04-25T09:57:12.762Z,26.24
2023-04-25T09:59:44.619Z,26.40
2023-04-25T10:02:12.885Z,26.40
2023-04-25T10:04:42.262Z,26.10
2023-04-25T10:07:32.427Z,25.21
2023-04-25T10:10:05.868Z,24.39
2023-04-25T10:12:37.301Z,23.87
2023-04-25T10:15:05.267Z,23.78
2023-04-25T10:17:35.272Z,23.57
2023-04-25T10:20:09.399Z,23.45
2023-04-25T10:22:47.345Z,23.31
2023-04-25T10:25:15.288Z,23.40
2023-04-25T10:27:42.740Z,23.27
2023-04-25T10:30:17.007Z,22.99
2023-04-25T10:32:45.051Z,22.90
2023-04-25T10:35:17.733Z,23.02
2023-04-25T10:38:09.892Z,23.28
2023-04-25T10:40:37.704Z,23.10
2023-04-25T10:43:32.421Z,23.11
2023-04-25T10:46:03.132Z,22.77
2023-04-25T10:48:32.093Z,22.76
2023-04-25T10:51:12.310Z,22.89
2023-04-25T10:53:39.431Z,22.95
2023-04-25T10:56:34.055Z,22.88
2023-04-25T10:59:05.901Z,22.88
2023-04-25T11:01:38.503Z,22.66
2023-04-25T11:04:05.998Z,22.39
2023-04-25T11:07:08.542Z,22.35
2023-04-25T11:09:39.033Z,22.65
2023-04-25T11:12:06.475Z,22.82
2023-04-25T11:14:33.445Z,22.95
2023-04-25T11:17:02.222Z,22.93
2023-04-25T11:19:30.387Z,22.97
2023-04-25T11:21:59.238Z,23.04
2023-04-25T11:24:36.577Z,23.28
2023-04-25T11:27:05.041Z,23.23
2023-04-25T11:29:34.183Z,23.24
2023-04-25T11:32:02.339Z,23.10
2023-04-25T11:34:33.957Z,23.15
2023-04-25T11:37:03.225Z,23.13
2023-04-25T11:39:31.073Z,23.16
2023-04-25T11:41:58.373Z,23.02
2023-04-25T11:44:25.681Z,22.93
2023-04-25T11:46:52.707Z,22.61
2023-04-25T11:49:19.780Z,22.73
2023-04-25T11:51:48.979Z,22.87
2023-04-25T11:54:16.698Z,22.76
2023-04-25T11:56:45.028Z,22.72
2023-04-25T11:59:13.037Z,22.57
2023-04-25T12:01:42.656Z,22.21
2023-04-25T12:04:15.172Z,22.13
2023-04-25T12:06:44.569Z,22.10
2023-04-25T12:09:14.318Z,21.98
2023-04-25T12:11:50.143Z,21.95
2023-04-25T12:14:25.274Z,22.06
2023-04-25T12:16:52.881Z,22.18
2023-04-25T12:19:22.245Z,22.11
2023-04-25T12:21:58.119Z,22.04
2023-04-25T12:24:27.155Z,22.33
2023-04-25T12:27:05.311Z,22.27
2023-04-25T12:29:41.946Z,22.03
2023-04-25T12:32:15.581Z,22.13
2023-04-25T12:34:42.717Z,22.10
2023-04-25T12:37:09.833Z,22.26
2023-04-25T12:39:37.003Z,22.31
2023-04-25T12:42:06.214Z,22.27
2023-04-25T12:44:36.093Z,22.17
2023-04-25T12:47:04.271Z,22.11
2023-04-25T12:49:31.674Z,22.06
2023-04-25T12:51:59.319Z,22.10
2023-04-25T12:54:27.041Z,22.10
2023-04-25T12:56:54.288Z,22.12
2023-04-25T12:59:22.397Z,22.08
2023-04-25T13:01:49.917Z,22.19
2023-04-25T13:04:18.855Z,21.94
2023-04-25T13:06:46.189Z,21.58
2023-04-25T13:09:13.747Z,21.76
2023-04-25T13:11:42.507Z,21.59
2023-04-25T13:14:09.573Z,21.40
2023-04-25T13:16:36.785Z,21.36
2023-04-25T13:19:03.866Z,21.26
2023-04-25T13:21:33.459Z,21.33
2023-04-25T13:24:00.813Z,21.39
2023-04-25T13:26:27.963Z,21.39
2023-04-25T13:28:54.994Z,20.90
2023-04-25T13:31:22.297Z,21.39
2023-04-25T13:33:49.987Z,21.38
2023-04-25T13:36:17.605Z,21.55
2023-04-25T13:38:46.175Z,21.61
2023-04-25T13:41:18.897Z,21.47
2023-04-25T13:43:49.050Z,21.61
2023-04-25T13:46:35.146Z,21.63
2023-04-25T13:49:12.421Z,21.52
2023-04-25T13:51:41.503Z,21.49
2023-04-25T13:54:08.819Z,21.47
2023-04-25T13:56:36.053Z,21.47
2023-04-25T13:59:03.032Z,21.63
2023-04-25T14:01:32.270Z,21.57
2023-04-25T14:03:59.553Z,21.47
2023-04-25T14:06:27.060Z,21.41
2023-04-25T14:08:55.075Z,21.35
2023-04-25T14:11:22.176Z,21.41
2023-04-25T14:13:50.622Z,21.43
2023-04-25T14:16:18.380Z,21.22
2023-04-25T14:18:45.460Z,21.33
2023-04-25T14:21:12.525Z,21.39
2023-04-25T14:23:39.598Z,21.32
2023-04-25T14:26:06.797Z,21.27
2023-04-25T14:28:33.869Z,21.11
2023-04-25T14:31:01.769Z,21.14
2023-04-25T14:33:28.974Z,21.16
2023-04-25T14:35:56.200Z,21.20
2023-04-25T14:38:24.516Z,21.11
2023-04-25T14:40:52.667Z,21.03
2023-04-25T14:43:19.642Z,21.03
2023-04-25T14:45:46.791Z,21.11
2023-04-25T14:48:13.987Z,21.11
2023-04-25T14:50:41.024Z,21.10
2023-04-25T14:53:08.140Z,20.99
2023-04-25T14:55:35.135Z,20.85
2023-04-25T14:58:02.183Z,20.85
2023-04-25T15:00:29.506Z,20.81
2023-04-25T15:02:57.318Z,20.72
2023-04-25T15:05:24.601Z,20.62
2023-04-25T15:07:51.725Z,20.66
2023-04-25T15:10:19.670Z,20.71
2023-04-25T15:12:48.019Z,20.41
2023-04-25T15:15:22.664Z,20.65
2023-04-25T15:17:53.004Z,20.61
2023-04-25T15:20:20.118Z,20.62
2023-04-25T15:22:49.766Z,20.56
2023-04-25T15:25:20.658Z,20.61
2023-04-25T15:27:49.631Z,20.60
2023-04-25T15:30:17.896Z,20.55
2023-04-25T15:32:47.228Z,20.50
2023-04-25T15:35:15.957Z,20.49
2023-04-25T15:37:43.451Z,20.47
2023-04-25T15:40:16.640Z,20.44
2023-04-25T15:42:51.548Z,20.43
2023-04-25T15:45:20.852Z,20.43
2023-04-25T15:47:48.044Z,20.40
2023-04-25T15:50:16.298Z,20.41
2023-04-25T15:52:43.917Z,20.45
2023-04-25T15:55:12.955Z,20.45
2023-04-25T15:57:42.131Z,20.38
2023-04-25T16:00:13.475Z,20.40
2023-04-25T16:02:43.480Z,20.39
2023-04-25T16:05:11.682Z,20.35
2023-04-25T16:07:43.515Z,20.38
2023-04-25T16:10:11.723Z,20.39
2023-04-25T16:12:42.220Z,20.37
2023-04-25T16:15:09.603Z,20.34
2023-04-25T16:17:36.888Z,20.35
2023-04-25T16:20:10.433Z,20.21
2023-04-25T16:22:42.281Z,20.31
2023-04-25T16:25:10.635Z,20.30
2023-04-25T16:27:40.732Z,20.25
2023-04-25T16:30:10.163Z,20.18
2023-04-25T16:32:38.332Z,20.07
2023-04-25T16:35:06.272Z,20.12
2023-04-25T16:37:33.598Z,20.04
2023-04-25T16:40:00.740Z,20.07
2023-04-25T16:42:30.844Z,20.01
2023-04-25T16:44:57.845Z,20.03
2023-04-25T16:47:25.692Z,19.94
2023-04-25T16:49:53.394Z,19.85
2023-04-25T16:52:22.105Z,19.83
2023-04-25T16:54:49.235Z,19.80
2023-04-25T16:57:16.637Z,19.76
2023-04-25T16:59:43.890Z,19.48
2023-04-25T17:02:13.246Z,19.57
2023-04-25T17:04:41.123Z,19.66
2023-04-25T17:07:08.906Z,19.58
2023-04-25T17:09:36.442Z,19.59
2023-04-25T17:12:04.638Z,19.65
2023-04-25T17:14:33.336Z,19.60
2023-04-25T17:17:01.019Z,19.35
2023-04-25T17:19:28.662Z,19.23
2023-04-25T17:21:56.220Z,19.26
2023-04-25T17:24:23.314Z,19.06
2023-04-25T17:26:50.354Z,18.86
2023-04-25T17:29:17.397Z,18.94
2023-04-25T17:31:45.071Z,18.84
2023-04-25T17:34:16.582Z,18.76
2023-04-25T17:36:45.116Z,18.77
2023-04-25T17:39:12.282Z,18.35
2023-04-25T17:41:39.297Z,18.09
2023-04-25T17:44:06.818Z,18.01
2023-04-25T17:46:33.868Z,18.00
2023-04-25T17:49:01.325Z,17.94
2023-04-25T17:51:28.609Z,17.80
2023-04-25T17:53:55.931Z,17.76
2023-04-25T17:56:27.176Z,17.70
2023-04-25T17:58:55.092Z,17.64
2023-04-25T18:01:22.845Z,17.60
2023-04-25T18:03:51.909Z,17.58
2023-04-25T18:06:19.413Z,17.53
2023-04-25T18:08:47.279Z,17.48
2023-04-25T18:11:14.498Z,17.33
2023-04-25T18:13:41.729Z,17.30
2023-04-25T18:16:09.161Z,17.40
2023-04-25T18:18:37.096Z,17.35
2023-04-25T18:21:05.853Z,17.40
2023-04-25T18:23:36.037Z,17.33
2023-04-25T18:26:04.449Z,17.20
2023-04-25T18:28:34.202Z,17.38
2023-04-25T18:31:01.769Z,17.23
2023-04-25T18:33:28.866Z,17.21
2023-04-25T18:35:59.678Z,17.29
2023-04-25T18:41:08.209Z,17.30
2023-04-25T18:43:44.918Z,17.19
2023-04-25T18:46:12.389Z,17.19
2023-04-25T18:48:39.444Z,17.05
2023-04-25T18:51:06.657Z,17.21
2023-04-25T18:53:33.821Z,17.23
2023-04-25T18:56:01.245Z,17.23
2023-04-25T18:58:28.370Z,17.27
2023-04-25T19:00:55.607Z,17.24
2023-04-25T19:03:22.966Z,17.23
2023-04-25T19:05:50.196Z,17.22
2023-04-25T19:08:17.264Z,17.25
2023-04-25T19:10:44.573Z,16.85
2023-04-25T19:13:11.629Z,17.14
2023-04-25T19:15:39.555Z,17.12
2023-04-25T19:18:06.953Z,17.06
2023-04-25T19:20:34.530Z,16.87
2023-04-25T19:23:01.861Z,16.83
2023-04-25T19:25:28.964Z,16.46
2023-04-25T19:27:56.721Z,16.82
2023-04-25T19:30:24.156Z,16.84
2023-04-25T19:32:51.283Z,16.89
2023-04-25T19:35:18.356Z,16.78
2023-04-25T19:37:48.215Z,16.86
2023-04-25T19:40:16.779Z,16.81
2023-04-25T19:42:45.047Z,16.78
2023-04-25T19:45:12.613Z,16.62
2023-04-25T19:47:39.900Z,16.75
2023-04-25T19:50:08.608Z,16.74
2023-04-25T19:52:36.886Z,16.73
2023-04-25T19:55:05.054Z,16.73
2023-04-25T19:57:35.132Z,16.61
2023-04-25T20:00:08.944Z,16.66
2023-04-25T20:02:45.521Z,16.64
2023-04-25T20:05:17.118Z,16.64
2023-04-25T20:07:44.286Z,16.56
2023-04-25T20:10:16.516Z,16.57
2023-04-25T20:12:44.936Z,16.58
2023-04-25T20:15:12.420Z,16.51
2023-04-25T20:17:41.940Z,16.50
2023-04-25T20:20:10.965Z,16.48
2023-04-25T20:22:40.279Z,16.49
2023-04-25T20:25:09.990Z,16.49
2023-04-25T20:27:40.544Z,16.41
2023-04-25T20:30:08.749Z,16.39
2023-04-25T20:32:37.125Z,16.36
2023-04-25T20:35:07.191Z,16.32
2023-04-25T20:37:35.463Z,16.20
2023-04-25T20:40:06.410Z,16.18
2023-04-25T20:42:34.405Z,16.17
2023-04-25T20:45:01.985Z,16.06
2023-04-25T20:47:31.590Z,16.05
2023-04-25T20:49:59.466Z,16.12
2023-04-25T20:52:26.509Z,16.06
2023-04-25T20:54:54.325Z,15.88
2023-04-25T20:57:21.371Z,15.95
2023-04-25T20:59:49.612Z,15.93
2023-04-25T21:02:17.970Z,15.89
2023-04-25T21:04:45.217Z,15.83
2023-04-25T21:07:13.197Z,15.77
2023-04-25T21:09:45.590Z,15.77
2023-04-25T21:12:12.866Z,15.71
2023-04-25T21:14:39.886Z,15.77
2023-04-25T21:17:06.983Z,15.70
2023-04-25T21:19:34.357Z,15.60
2023-04-25T21:22:02.419Z,15.61
2023-04-25T21:24:31.294Z,15.50
2023-04-25T21:26:58.802Z,15.41
2023-04-25T21:29:25.959Z,15.43
2023-04-25T21:31:53.154Z,15.28
2023-04-25T21:34:20.152Z,15.36
2023-04-25T21:36:47.170Z,15.26
2023-04-25T21:39:15.175Z,15.27
2023-04-25T21:41:44.496Z,15.02
2023-04-25T21:44:12.998Z,14.88
2023-04-25T21:46:40.061Z,15.12
2023-04-25T21:49:07.344Z,15.07
2023-04-25T21:51:34.434Z,15.10
2023-04-25T21:54:05.360Z,15.04
2023-04-25T21:56:33.213Z,15.04
2023-04-25T21:59:00.561Z,14.97
2023-04-25T22:01:28.696Z,14.89
2023-04-25T22:03:56.010Z,14.80
2023-04-25T22:06:23.231Z,14.58
2023-04-25T22:08:50.542Z,14.82
2023-04-25T22:11:17.761Z,14.82
2023-04-25T22:13:45.666Z,14.76
2023-04-25T22:16:13.051Z,14.66
2023-04-25T22:18:40.826Z,14.57
2023-04-25T22:21:08.868Z,14.64
2023-04-25T22:23:37.355Z,14.62
2023-04-25T22:26:05.246Z,14.54
2023-04-25T22:28:33.320Z,14.60
2023-04-25T22:31:00.585Z,14.62
2023-04-25T22:33:27.757Z,14.57
2023-04-25T22:35:54.810Z,14.38
2023-04-25T22:38:22.121Z,14.46
2023-04-25T22:40:49.349Z,14.35
2023-04-25T22:43:16.680Z,14.37
2023-04-25T22:45:44.103Z,14.35
2023-04-25T22:48:11.576Z,14.42
2023-04-25T22:50:40.798Z,14.24
2023-04-25T22:53:10.214Z,14.35
2023-04-25T22:55:37.543Z,14.29
2023-04-25T22:58:05.314Z,14.27
2023-04-25T23:00:34.503Z,14.16
2023-04-25T23:03:06.145Z,14.20
2023-04-25T23:05:33.579Z,14.10
2023-04-25T23:08:00.707Z,14.08
2023-04-25T23:10:30.935Z,14.11
2023-04-25T23:13:00.549Z,14.04
2023-04-25T23:15:30.932Z,14.00
2023-04-25T23:17:58.697Z,14.05
2023-04-25T23:20:26.785Z,13.98
2023-04-25T23:22:54.876Z,14.02
2023-04-25T23:25:22.514Z,13.88
2023-04-25T23:27:49.713Z,14.00
2023-04-25T23:30:17.009Z,13.89
2023-04-25T23:32:44.194Z,13.91
2023-04-25T23:35:11.510Z,13.80
2023-04-25T23:37:40.535Z,13.98
2023-04-25T23:40:12.721Z,14.00
2023-04-25T23:42:41.271Z,13.96
2023-04-25T23:45:09.311Z,13.98
2023-04-25T23:47:36.709Z,13.98
2023-04-25T23:50:04.738Z,13.90
2023-04-25T23:52:32.431Z,13.94
2023-04-25T23:54:59.473Z,13.90
2023-04-25T23:57:26.924Z,13.89
2023-04-25T23:59:54.043Z,13.79
